Time;durP1;ratioP1;P1;durP2;ratioP2;P2;SDS_P1;SDS_P2;PMS_P1;PMS_P2;Temp;Humidity;BMP_temperature;BMP_pressure;BME280_temperature;BME280_humidity;BME280_pressure;Samples;Min_cycle;Max_cycle;Signal;HPM_P1;HPM_P2
2022/10/06 00:00:38;;;;;;;;;9.00;8.50;;;;;17.46;48.76;99390.81;6147051;28;96632;-71
2022/10/06 00:03:42;;;;;;;;;7.25;7.00;;;;;17.45;48.76;99388.31;6129061;28;98546;-70
2022/10/06 00:06:47;;;;;;;;;9.00;9.00;;;;;17.47;48.57;99395.19;6163299;28;96395;-70
2022/10/06 00:09:50;;;;;;;;;8.00;7.80;;;;;17.51;48.48;99393.59;6146875;28;96855;-72
2022/10/06 00:12:53;;;;;;;;;8.00;7.00;;;;;17.54;48.58;99395.81;6163252;28;96787;-70
2022/10/06 00:15:56;;;;;;;;;9.00;9.00;;;;;17.52;48.88;99397.13;6164412;28;96430;-70
2022/10/06 00:19:00;;;;;;;;;9.25;9.25;;;;;17.50;48.89;99399.28;6164012;28;96969;-71
2022/10/06 00:22:05;;;;;;;;;6.75;6.75;;;;;17.44;48.74;99394.88;6163349;28;97224;-72
2022/10/06 00:25:10;;;;;;;;;8.40;7.00;;;;;17.32;49.42;99406.72;6160801;28;96492;-69
2022/10/06 00:28:13;;;;;;;;;12.00;10.00;;;;;17.19;49.98;99404.38;6162174;28;96515;-70
2022/10/06 00:31:18;;;;;;;;;10.00;10.00;;;;;17.07;50.55;99398.19;6144469;28;96492;-70
2022/10/06 00:34:22;;;;;;;;;10.00;9.50;;;;;16.94;50.85;99409.47;6143195;28;96374;-70
2022/10/06 00:37:27;;;;;;;;;8.00;7.40;;;;;16.72;51.14;99398.50;6159969;28;96960;-70
2022/10/06 00:40:32;;;;;;;;;10.20;9.00;;;;;16.62;51.87;99409.22;6145789;28;96795;-70
2022/10/06 00:43:47;;;;;;;;;10.00;9.50;;;;;16.47;52.16;99412.50;6144585;28;97156;-70
2022/10/06 00:46:53;;;;;;;;;10.00;10.00;;;;;16.35;52.56;99419.09;6146442;28;96230;-70
2022/10/06 00:49:57;;;;;;;;;12.00;12.00;;;;;16.24;52.83;99419.97;6146034;28;98402;-70
2022/10/06 00:53:02;;;;;;;;;13.80;12.80;;;;;16.16;53.70;99418.50;6163053;28;96489;-70
2022/10/06 00:56:06;;;;;;;;;13.00;13.00;;;;;16.02;54.09;99422.59;6144962;28;96858;-69
2022/10/06 00:59:11;;;;;;;;;12.00;12.00;;;;;15.94;54.11;99431.97;6163908;28;97110;-71
2022/10/06 01:02:21;;;;;;;;;15.00;12.40;;;;;15.85;54.46;99432.59;6163677;28;96648;-71
2022/10/06 01:05:30;;;;;;;;;15.40;14.40;;;;;15.75;54.96;99437.81;6161554;28;96402;-70
2022/10/06 01:08:36;;;;;;;;;13.40;12.00;;;;;15.66;54.88;99440.09;6161731;28;96319;-70
2022/10/06 01:11:40;;;;;;;;;12.20;12.20;;;;;15.57;55.33;99447.00;6145152;28;96695;-70
2022/10/06 01:14:43;;;;;;;;;13.00;12.60;;;;;15.43;55.83;99443.69;6145303;28;98823;-70
2022/10/06 01:17:53;;;;;;;;;13.00;12.00;;;;;15.25;55.79;99443.03;6141546;28;97722;-70
2022/10/06 01:21:05;;;;;;;;;16.60;14.60;;;;;15.30;56.40;99453.97;6138742;28;97271;-70
2022/10/06 01:24:11;;;;;;;;;12.00;10.40;;;;;15.24;56.63;99457.66;6163478;28;96415;-69
2022/10/06 01:27:16;;;;;;;;;15.00;13.40;;;;;15.13;56.54;99460.16;6136989;28;97144;-71
2022/10/06 01:30:25;;;;;;;;;15.60;14.00;;;;;15.05;56.81;99465.91;6162997;28;96573;-71
2022/10/06 01:33:30;;;;;;;;;14.00;14.00;;;;;14.97;57.11;99466.28;6143533;28;98451;-71
2022/10/06 01:36:33;;;;;;;;;16.00;15.00;;;;;14.92;57.28;99470.75;6139420;28;96471;-70
2022/10/06 01:39:38;;;;;;;;;18.00;16.40;;;;;14.85;57.83;99467.34;6145528;28;96980;-70
2022/10/06 01:42:43;;;;;;;;;15.00;13.00;;;;;14.77;57.66;99471.22;6162165;28;96948;-71
2022/10/06 01:45:53;;;;;;;;;14.40;14.40;;;;;14.69;57.97;99472.41;6145327;28;96413;-70
2022/10/06 01:48:57;;;;;;;;;16.00;15.75;;;;;14.67;58.30;99477.22;6163065;28;96293;-69
2022/10/06 01:52:00;;;;;;;;;17.00;16.00;;;;;14.68;58.38;99488.91;6161409;28;96822;-70
2022/10/06 01:55:06;;;;;;;;;14.80;14.80;;;;;14.69;58.28;99483.25;6163005;28;96252;-71
2022/10/06 01:58:11;;;;;;;;;16.00;15.33;;;;;14.64;59.00;99471.44;6145829;28;96380;-71
2022/10/06 02:01:16;;;;;;;;;15.20;13.20;;;;;14.61;58.60;99475.44;6129598;28;97867;-71
2022/10/06 02:04:19;;;;;;;;;17.00;15.60;;;;;14.66;58.66;99485.63;6141548;28;96399;-70
2022/10/06 02:07:22;;;;;;;;;20.00;19.00;;;;;14.61;59.22;99488.22;6141387;28;96385;-71
2022/10/06 02:10:27;;;;;;;;;15.20;14.20;;;;;14.59;59.60;99490.31;6141808;28;96671;-70
2022/10/06 02:13:32;;;;;;;;;16.00;15.00;;;;;14.54;58.98;99491.03;6143835;28;96366;-71
2022/10/06 02:16:36;;;;;;;;;9.80;9.00;;;;;14.51;59.19;99486.06;6147617;28;96997;-71
2022/10/06 02:19:39;;;;;;;;;15.80;14.80;;;;;14.49;59.30;99488.19;6143030;28;96966;-71
2022/10/06 02:22:43;;;;;;;;;14.00;13.00;;;;;14.46;59.47;99488.66;6142286;28;96445;-70
2022/10/06 02:25:48;;;;;;;;;16.00;14.40;;;;;14.47;59.32;99486.72;6144120;28;96978;-71
2022/10/06 02:28:52;;;;;;;;;16.00;14.00;;;;;14.24;59.37;99455.75;6144457;28;96899;-70
2022/10/06 02:31:58;;;;;;;;;15.25;13.00;;;;;14.45;59.83;99489.69;6141693;28;96551;-70
2022/10/06 02:35:03;;;;;;;;;13.50;11.50;;;;;14.53;60.41;99493.94;6162147;28;96277;-70
2022/10/06 02:38:07;;;;;;;;;14.00;13.00;;;;;14.61;60.75;99490.94;6161261;28;96489;-70
2022/10/06 02:41:12;;;;;;;;;14.00;13.00;;;;;14.67;61.04;99485.38;6160895;28;98178;-70
2022/10/06 02:44:15;;;;;;;;;13.00;11.60;;;;;14.74;60.76;99485.28;6161326;28;96744;-70
2022/10/06 02:47:21;;;;;;;;;14.00;13.00;;;;;14.83;60.86;99491.19;6143491;28;98497;-70
2022/10/06 02:50:24;;;;;;;;;13.00;11.00;;;;;14.87;60.50;99495.06;6147648;28;97654;-70
2022/10/06 02:53:29;;;;;;;;;14.00;14.00;;;;;14.88;59.98;99486.69;6147138;28;98463;-71
2022/10/06 02:56:33;;;;;;;;;14.60;14.00;;;;;14.93;60.62;99492.25;6156802;28;96350;-70
2022/10/06 02:59:37;;;;;;;;;17.25;16.00;;;;;14.99;60.84;99490.50;6165071;28;96600;-69
2022/10/06 03:02:40;;;;;;;;;16.00;14.00;;;;;15.03;60.86;99497.94;6145527;28;96774;-70
2022/10/06 03:05:45;;;;;;;;;17.40;16.00;;;;;15.06;60.74;99492.00;6131885;28;96640;-71
2022/10/06 03:08:49;;;;;;;;;18.00;16.60;;;;;15.07;60.17;99496.38;6147419;28;96872;-70
2022/10/06 03:11:53;;;;;;;;;14.40;13.80;;;;;15.10;60.07;99500.53;6140270;28;96299;-70
2022/10/06 03:15:07;;;;;;;;;17.00;14.40;;;;;15.15;60.03;99506.06;6148367;28;96245;-69
2022/10/06 03:18:11;;;;;;;;;15.75;12.75;;;;;15.14;60.63;99496.28;6162795;28;96454;-70
2022/10/06 03:21:15;;;;;;;;;13.00;13.00;;;;;15.09;61.05;99507.84;6146940;28;97888;-71
2022/10/06 03:24:19;;;;;;;;;12.80;12.00;;;;;15.09;61.17;99505.13;6147289;28;96819;-69
2022/10/06 03:27:28;;;;;;;;;14.20;13.00;;;;;15.12;60.98;99493.78;6148439;28;97901;-69
2022/10/06 03:30:36;;;;;;;;;14.00;14.00;;;;;15.08;60.55;99499.94;6129517;28;99056;-71
2022/10/06 03:33:40;;;;;;;;;15.20;14.40;;;;;15.04;60.47;99513.16;6123042;28;98997;-70
2022/10/06 03:36:44;;;;;;;;;16.00;14.00;;;;;15.05;61.27;99495.00;6164029;28;96408;-70
2022/10/06 03:39:47;;;;;;;;;13.00;13.00;;;;;15.03;61.67;99497.09;6127639;28;96690;-71
2022/10/06 03:42:53;;;;;;;;;12.00;11.75;;;;;15.10;61.66;99503.25;6143077;28;97626;-71
2022/10/06 03:45:56;;;;;;;;;13.80;12.20;;;;;15.08;61.61;99506.19;6142796;28;97504;-71
2022/10/06 03:49:00;;;;;;;;;13.00;12.60;;;;;15.05;61.88;99509.38;6139907;28;96873;-71
2022/10/06 03:52:05;;;;;;;;;15.00;13.50;;;;;15.06;61.96;99499.34;6140241;28;96625;-71
2022/10/06 03:55:12;;;;;;;;;14.00;13.33;;;;;15.05;62.07;99512.06;6143640;28;97348;-71
2022/10/06 03:58:18;;;;;;;;;13.00;12.00;;;;;15.04;62.13;99499.59;6157135;28;98219;-71
2022/10/06 04:01:24;;;;;;;;;12.75;11.75;;;;;15.03;62.77;99497.09;6158738;28;97215;-68
2022/10/06 04:04:29;;;;;;;;;17.00;14.00;;;;;15.06;62.22;99504.75;6155181;28;96895;-71
2022/10/06 04:07:36;;;;;;;;;16.00;14.00;;;;;15.02;61.56;99509.84;6141884;28;96863;-68
2022/10/06 04:10:39;;;;;;;;;12.40;12.00;;;;;15.05;61.92;99512.06;6160060;28;99004;-72
2022/10/06 04:13:45;;;;;;;;;15.00;13.60;;;;;15.04;61.76;99506.91;6140115;28;97303;-69
2022/10/06 04:16:50;;;;;;;;;14.00;14.00;;;;;15.04;61.77;99512.34;6156638;28;98891;-70
2022/10/06 04:19:58;;;;;;;;;13.60;13.00;;;;;15.01;61.70;99508.19;6157272;28;97424;-70
2022/10/06 04:23:02;;;;;;;;;12.80;11.40;;;;;15.06;62.08;99512.91;6141598;28;96624;-72
2022/10/06 04:26:09;;;;;;;;;14.00;13.60;;;;;15.05;61.97;99514.78;6142958;28;96461;-72
2022/10/06 04:29:14;;;;;;;;;14.00;14.00;;;;;15.04;61.71;99510.44;6142624;28;97119;-71
2022/10/06 04:32:19;;;;;;;;;15.40;15.40;;;;;15.05;62.30;99516.72;6143475;28;96435;-71
2022/10/06 04:35:22;;;;;;;;;17.00;15.00;;;;;15.05;61.84;99512.06;6160067;28;96222;-71
2022/10/06 04:38:28;;;;;;;;;14.50;13.00;;;;;15.06;62.37;99521.06;6126832;28;98537;-71
2022/10/06 04:41:34;;;;;;;;;17.75;16.00;;;;;15.09;62.33;99518.72;6159973;28;97275;-71
2022/10/06 04:44:39;;;;;;;;;13.00;12.00;;;;;15.14;62.02;99526.16;6140995;28;98421;-70
2022/10/06 04:47:43;;;;;;;;;16.60;14.00;;;;;15.15;61.92;99525.06;6125273;28;96941;-70
2022/10/06 04:50:54;;;;;;;;;12.00;12.00;;;;;15.16;61.70;99533.00;6141875;28;96930;-70
2022/10/06 04:53:58;;;;;;;;;17.00;15.00;;;;;15.16;61.61;99521.28;6141585;28;96574;-70
2022/10/06 04:57:04;;;;;;;;;12.20;11.60;;;;;15.13;61.43;99519.91;6143854;28;96321;-70
2022/10/06 05:00:24;;;;;;;;;19.00;17.75;;;;;15.10;60.80;99524.97;6131906;28;97409;-71
2022/10/06 05:03:28;;;;;;;;;16.00;13.60;;;;;15.03;60.76;99525.09;6142062;28;96969;-70
2022/10/06 05:06:34;;;;;;;;;15.00;14.00;;;;;15.00;60.77;99528.25;6140215;28;96330;-71
2022/10/06 05:09:38;;;;;;;;;16.60;15.00;;;;;14.99;60.92;99528.50;6124819;28;98437;-71
2022/10/06 05:12:42;;;;;;;;;16.25;15.25;;;;;15.03;61.13;99535.13;6139257;28;98356;-71
2022/10/06 05:15:56;;;;;;;;;17.50;17.50;;;;;15.08;61.07;99538.78;6140173;28;96720;-71
2022/10/06 05:19:03;;;;;;;;;13.75;13.00;;;;;15.16;60.96;99535.72;6126563;28;97681;-70
2022/10/06 05:22:07;;;;;;;;;15.40;14.00;;;;;15.24;61.07;99550.84;6157935;28;96831;-71
2022/10/06 05:25:11;;;;;;;;;19.00;16.80;;;;;15.29;60.52;99544.69;6127175;28;97927;-71
2022/10/06 05:28:14;;;;;;;;;16.00;14.40;;;;;15.38;60.07;99551.44;6158835;28;96502;-70
2022/10/06 05:31:21;;;;;;;;;14.00;13.40;;;;;15.46;59.67;99543.75;6142623;28;98862;-70
2022/10/06 05:34:25;;;;;;;;;14.50;14.50;;;;;15.56;59.55;99552.16;6125266;28;97031;-70
2022/10/06 05:37:28;;;;;;;;;17.60;15.00;;;;;15.67;59.36;99555.09;6140832;28;98143;-70
2022/10/06 05:40:32;;;;;;;;;16.00;14.00;;;;;15.77;58.76;99553.44;6143646;28;96943;-70
2022/10/06 05:43:35;;;;;;;;;16.75;15.75;;;;;15.90;58.70;99561.31;6142385;28;96381;-70
2022/10/06 05:46:40;;;;;;;;;14.00;13.00;;;;;16.09;58.46;99556.53;6146895;28;97464;-70
2022/10/06 05:49:44;;;;;;;;;15.60;15.00;;;;;16.29;58.28;99565.13;6125475;28;96851;-68
2022/10/06 05:52:47;;;;;;;;;16.60;15.00;;;;;16.51;58.05;99564.44;6140374;28;97402;-72
2022/10/06 05:55:50;;;;;;;;;17.00;16.00;;;;;16.74;57.63;99572.53;6159609;28;97299;-69
2022/10/06 05:58:55;;;;;;;;;17.80;14.80;;;;;16.97;57.32;99569.66;6139374;28;99508;-70
2022/10/06 06:02:01;;;;;;;;;16.00;14.60;;;;;17.08;56.97;99571.47;6142234;28;97078;-70
2022/10/06 06:05:17;;;;;;;;;18.40;17.40;;;;;17.39;56.77;99585.59;6140606;28;98978;-70
2022/10/06 06:08:21;;;;;;;;;21.60;20.00;;;;;17.66;55.68;99598.31;6141747;28;97486;-70
2022/10/06 06:11:26;;;;;;;;;17.75;16.75;;;;;17.95;54.70;99592.72;6124791;28;96648;-71
2022/10/06 06:18:00;;;;;;;;;16.00;15.00;;;;;18.71;52.17;99607.31;6154165;28;97540;-70
2022/10/06 06:21:06;;;;;;;;;18.00;16.40;;;;;19.21;51.33;99596.03;6159181;28;96921;-70
2022/10/06 06:24:09;;;;;;;;;15.20;15.00;;;;;20.00;49.40;99624.25;6128374;28;99544;-70
2022/10/06 06:27:13;;;;;;;;;16.40;15.40;;;;;20.70;47.05;99625.69;6147139;28;96554;-71
2022/10/06 06:30:16;;;;;;;;;15.00;14.00;;;;;21.49;45.48;99631.56;6149774;28;96949;-71
2022/10/06 06:33:21;;;;;;;;;47.40;40.60;;;;;22.35;43.05;99636.91;6147370;28;98581;-69
2022/10/06 06:36:26;;;;;;;;;40.20;34.60;;;;;24.01;39.87;99634.13;6144184;28;96983;-71
2022/10/06 06:39:29;;;;;;;;;24.00;23.67;;;;;26.41;35.56;99639.34;6143658;28;96583;-71
2022/10/06 06:42:33;;;;;;;;;19.00;17.00;;;;;28.44;31.72;99649.91;6163003;28;96684;-71
2022/10/06 06:46:08;;;;;;;;;15.00;14.00;;;;;27.43;31.68;99647.03;6145877;28;97117;-73
2022/10/06 06:49:35;;;;;;;;;16.25;14.50;;;;;26.56;33.31;99646.50;6160293;28;96297;-70
2022/10/06 06:52:42;;;;;;;;;15.60;14.60;;;;;28.05;31.17;99668.50;6127257;28;96860;-71
2022/10/06 06:55:49;;;;;;;;;20.00;19.00;;;;;29.08;29.43;99668.84;6127697;28;97497;-69
2022/10/06 06:58:56;;;;;;;;;17.20;16.20;;;;;30.51;27.46;99674.91;6160909;28;96313;-70
2022/10/06 07:02:00;;;;;;;;;19.40;16.60;;;;;32.60;24.71;99678.00;6161541;28;96415;-70
2022/10/06 07:05:08;;;;;;;;;13.00;13.00;;;;;34.63;22.82;99684.78;6128950;28;97047;-70
2022/10/06 07:08:14;;;;;;;;;14.40;12.00;;;;;36.16;20.98;99692.59;6144911;28;97680;-70
2022/10/06 07:11:20;;;;;;;;;15.00;14.00;;;;;37.36;19.65;99688.13;6127551;28;97292;-70
2022/10/06 07:14:24;;;;;;;;;14.00;13.00;;;;;38.38;18.40;99697.00;6160758;28;97229;-71
2022/10/06 07:27:35;;;;;;;;;13.40;12.40;;;;;39.35;17.73;99716.31;6159242;28;96447;-71
2022/10/06 07:30:39;;;;;;;;;14.00;13.80;;;;;40.03;17.01;99714.59;6145341;28;96673;-72
2022/10/06 07:33:51;;;;;;;;;13.00;12.75;;;;;38.28;18.34;99716.59;6143061;28;96870;-71
2022/10/06 07:36:56;;;;;;;;;17.00;16.00;;;;;35.84;20.35;99705.16;6126560;28;96821;-71
2022/10/06 07:40:05;;;;;;;;;16.00;15.40;;;;;34.10;22.21;99709.38;6140935;28;97730;-71
2022/10/06 07:43:09;;;;;;;;;15.00;14.40;;;;;32.67;23.54;99705.41;6141874;28;97562;-71
2022/10/06 07:46:17;;;;;;;;;15.00;14.20;;;;;31.45;25.12;99709.72;6143737;28;96777;-72
2022/10/06 07:49:29;;;;;;;;;18.60;17.00;;;;;30.48;26.11;99714.56;6143154;28;99244;-72
2022/10/06 07:52:35;;;;;;;;;18.00;16.00;;;;;29.86;27.39;99720.53;6163513;28;96474;-72
2022/10/06 07:55:41;;;;;;;;;17.50;17.50;;;;;30.05;26.78;99700.75;6144015;28;97080;-72
2022/10/06 07:58:52;;;;;;;;;19.60;17.00;;;;;31.91;25.04;99714.28;6142766;28;96499;-70
2022/10/06 08:01:56;;;;;;;;;19.25;17.25;;;;;34.06;22.49;99719.66;6159118;28;96457;-71
2022/10/06 08:04:59;;;;;;;;;20.00;18.20;;;;;35.49;20.81;99727.66;6161074;28;96869;-72
2022/10/06 08:08:04;;;;;;;;;20.00;18.00;;;;;37.13;19.69;99732.41;6157651;28;98226;-72
2022/10/06 08:11:07;;;;;;;;;17.00;16.00;;;;;37.78;19.00;99726.50;6125829;28;98383;-72
2022/10/06 08:14:13;;;;;;;;;20.60;18.00;;;;;37.53;19.09;99752.31;6160043;28;96489;-72
2022/10/06 08:17:17;;;;;;;;;19.00;17.00;;;;;36.12;20.05;99756.25;6143275;28;97210;-72
2022/10/06 08:20:20;;;;;;;;;19.00;17.25;;;;;34.10;22.38;99756.13;6142889;28;98260;-72
2022/10/06 08:23:25;;;;;;;;;18.40;17.00;;;;;32.36;24.31;99763.69;6161684;28;97274;-71
2022/10/06 08:26:30;;;;;;;;;20.00;16.40;;;;;31.07;25.88;99754.41;6142966;28;98414;-72
2022/10/06 08:29:33;;;;;;;;;19.25;16.25;;;;;30.59;26.77;99760.34;6161247;28;97694;-72
2022/10/06 08:32:36;;;;;;;;;18.00;16.00;;;;;31.65;25.84;99761.09;6144886;28;98605;-71
2022/10/06 08:35:40;;;;;;;;;15.40;15.00;;;;;32.91;24.46;99768.81;6144266;28;99028;-72
2022/10/06 08:38:49;;;;;;;;;14.60;13.60;;;;;34.38;22.81;99768.13;6159309;28;96308;-72
2022/10/06 08:41:54;;;;;;;;;16.60;13.80;;;;;34.88;21.80;99787.09;6126417;28;98593;-71
2022/10/06 08:45:02;;;;;;;;;13.80;12.20;;;;;34.06;23.11;99781.22;6142862;28;96850;-73
2022/10/06 08:48:12;;;;;;;;;12.20;10.80;;;;;34.06;23.58;99781.22;6139239;28;96568;-72
2022/10/06 08:51:30;;;;;;;;;13.20;12.20;;;;;35.14;22.69;99780.91;6142061;28;96667;-72
2022/10/06 08:54:42;;;;;;;;;11.00;10.00;;;;;35.19;22.21;99777.84;6144268;28;96262;-72
2022/10/06 08:57:56;;;;;;;;;10.00;10.00;;;;;33.78;23.26;99783.19;6160604;28;96385;-72
2022/10/06 09:01:10;;;;;;;;;9.00;9.00;;;;;32.12;24.88;99781.19;6161129;28;96544;-71
2022/10/06 09:04:25;;;;;;;;;9.00;9.00;;;;;30.83;26.99;99777.28;6160996;28;96687;-71
2022/10/06 09:07:38;;;;;;;;;11.00;9.40;;;;;29.78;28.72;99779.75;6159714;28;96945;-71
2022/10/06 09:10:53;;;;;;;;;12.20;12.20;;;;;29.04;29.56;99779.75;6160056;28;97546;-73
2022/10/06 09:14:04;;;;;;;;;14.00;12.00;;;;;28.68;30.82;99777.16;6140771;28;96843;-72
2022/10/06 09:17:11;;;;;;;;;12.25;11.00;;;;;28.61;31.41;99782.34;6158085;28;97269;-72
2022/10/06 09:20:21;;;;;;;;;12.00;11.25;;;;;29.44;30.00;99782.50;6159417;28;96546;-72
2022/10/06 09:26:51;;;;;;;;;10.00;9.00;;;;;29.50;30.26;99795.09;6141855;28;97214;-72
2022/10/06 09:29:54;;;;;;;;;12.00;10.00;;;;;29.28;30.40;99807.91;6124808;28;98470;-71
2022/10/06 09:33:00;;;;;;;;;10.00;10.00;;;;;29.21;30.70;99802.03;6156936;28;98412;-74
2022/10/06 09:36:07;;;;;;;;;11.00;10.00;;;;;29.31;30.33;99784.28;6159931;28;97146;-73
2022/10/06 09:39:23;;;;;;;;;10.50;9.50;;;;;30.20;29.62;99805.94;6141776;28;97688;-73
2022/10/06 09:42:34;;;;;;;;;10.25;8.25;;;;;31.67;27.83;99798.59;6136000;28;96637;-71
2022/10/06 09:45:37;;;;;;;;;8.00;7.00;;;;;33.01;25.92;99801.88;6157565;28;96827;-74
2022/10/06 09:48:41;;;;;;;;;10.00;9.60;;;;;33.93;25.04;99816.00;6157983;28;97110;-73
2022/10/06 09:52:11;;;;;;;;;9.00;9.00;;;;;35.56;23.59;99806.34;6158245;28;96297;-73
2022/10/06 09:55:16;;;;;;;;;8.40;7.60;;;;;36.79;21.48;99805.34;6158411;28;96665;-73
2022/10/06 09:58:31;;;;;;;;;11.00;11.00;;;;;37.93;20.20;99815.53;6161586;28;96578;-73
2022/10/06 10:01:34;;;;;;;;;9.60;7.60;;;;;38.72;20.65;99824.53;6146009;28;97145;-73
2022/10/06 10:04:41;;;;;;;;;8.40;8.00;;;;;39.25;19.04;99818.56;6129411;28;97997;-73
2022/10/06 10:07:46;;;;;;;;;9.00;8.00;;;;;39.53;19.19;99813.19;6160848;28;98435;-73
2022/10/06 10:12:23;;;;;;;;;8.60;8.00;;;;;40.03;18.24;99827.56;6164291;28;96576;-72
2022/10/06 10:14:38;;;;;;;;;8.25;6.25;;;;;40.02;18.50;99821.13;6162767;28;96788;-73
2022/10/06 10:17:49;;;;;;;;;7.20;6.80;;;;;40.36;18.15;99820.88;6147086;28;96623;-73
2022/10/06 10:20:56;;;;;;;;;6.00;6.00;;;;;40.43;17.99;99815.22;6165621;28;96838;-72
2022/10/06 10:24:04;;;;;;;;;6.80;6.00;;;;;40.95;17.54;99813.72;6146908;28;96697;-73
2022/10/06 10:27:13;;;;;;;;;7.00;6.00;;;;;41.31;17.12;99820.19;6164063;28;96524;-72
2022/10/06 10:30:19;;;;;;;;;6.00;6.00;;;;;41.52;16.97;99823.03;6164256;28;97065;-73
2022/10/06 10:33:31;;;;;;;;;5.60;5.00;;;;;41.48;16.96;99816.56;6162380;28;97614;-73
2022/10/06 10:36:41;;;;;;;;;6.00;6.00;;;;;41.45;16.79;99803.22;6158110;28;97376;-73
2022/10/06 10:39:50;;;;;;;;;6.00;6.00;;;;;40.59;17.15;99815.66;6164793;28;96362;-74
2022/10/06 10:43:03;;;;;;;;;6.00;5.00;;;;;39.66;18.17;99806.00;6164153;28;97177;-72
2022/10/06 10:46:13;;;;;;;;;7.00;7.00;;;;;39.15;19.28;99803.19;6163091;28;96846;-73
2022/10/06 10:49:20;;;;;;;;;4.00;4.00;;;;;39.00;19.11;99804.28;6164186;28;96285;-74
2022/10/06 10:52:29;;;;;;;;;5.60;5.60;;;;;38.33;19.55;99800.75;6162238;28;96579;-71
2022/10/06 10:55:40;;;;;;;;;5.00;4.00;;;;;38.07;20.14;99802.47;6164047;28;98551;-73
2022/10/06 10:58:45;;;;;;;;;5.00;5.00;;;;;37.54;20.09;99806.56;6162257;28;96923;-73
2022/10/06 11:01:56;;;;;;;;;5.00;5.00;;;;;36.76;21.67;99808.06;6162168;28;96620;-72
2022/10/06 11:05:05;;;;;;;;;5.20;5.00;;;;;36.12;21.69;99798.34;6161126;28;96701;-71
2022/10/06 11:08:16;;;;;;;;;6.00;5.60;;;;;35.51;22.76;99801.84;6165906;28;96305;-72
2022/10/06 11:11:33;;;;;;;;;7.00;6.00;;;;;35.08;23.25;99793.59;6160646;28;96637;-72
2022/10/06 11:14:50;;;;;;;;;6.00;5.00;;;;;35.74;23.15;99804.78;6155201;28;96683;-71
2022/10/06 11:18:05;;;;;;;;;6.60;6.40;;;;;36.94;22.11;99797.94;6160357;28;96237;-71
2022/10/06 11:21:15;;;;;;;;;6.50;6.50;;;;;37.73;20.62;99828.94;6158967;28;96239;-73
2022/10/06 11:24:31;;;;;;;;;5.00;5.00;;;;;38.20;20.24;99819.94;6162779;28;98578;-73
2022/10/06 11:27:48;;;;;;;;;6.00;5.00;;;;;38.53;19.86;99831.22;6141132;28;97026;-72
2022/10/06 11:31:00;;;;;;;;;5.00;5.00;;;;;38.95;18.99;99830.81;6143746;28;97207;-73
2022/10/06 11:34:06;;;;;;;;;6.00;6.00;;;;;39.22;19.13;99831.47;6164333;28;96786;-71
2022/10/06 11:37:21;;;;;;;;;6.00;6.00;;;;;39.26;19.29;99821.00;6160533;28;98116;-72
2022/10/06 11:40:47;;;;;;;;;6.20;6.00;;;;;39.60;18.55;99823.69;6162052;28;96460;-71
2022/10/06 11:43:59;;;;;;;;;8.00;7.00;;;;;39.85;18.41;99813.38;6129966;28;98559;-72
2022/10/06 11:47:08;;;;;;;;;8.00;6.80;;;;;39.95;18.19;99812.63;6159585;28;96406;-71
2022/10/06 11:50:35;;;;;;;;;7.40;7.00;;;;;39.48;18.27;99819.19;6130378;28;96656;-71
2022/10/06 11:53:40;;;;;;;;;5.25;5.25;;;;;39.50;18.62;99816.78;6144950;28;97305;-72
2022/10/06 11:56:44;;;;;;;;;6.60;6.60;;;;;39.67;18.64;99812.44;6162169;28;96414;-70
2022/10/06 11:59:48;;;;;;;;;6.00;6.00;;;;;39.40;19.14;99821.16;6160936;28;97377;-72
2022/10/06 12:02:51;;;;;;;;;5.00;5.00;;;;;39.39;18.89;99825.16;6141091;28;96376;-73
2022/10/06 12:05:57;;;;;;;;;5.50;5.50;;;;;39.28;18.89;99832.72;6158761;28;97000;-74
2022/10/06 12:09:00;;;;;;;;;6.00;5.00;;;;;38.97;19.34;99838.91;6159876;28;96287;-73
2022/10/06 12:12:56;;;;;;;;;10.20;8.00;;;;;37.95;20.33;99830.03;6161035;28;96240;-73
2022/10/06 12:16:25;;;;;;;;;5.25;5.25;;;;;37.27;21.03;99836.69;6158499;28;98463;-73
2022/10/06 12:19:57;;;;;;;;;6.00;5.00;;;;;36.42;21.98;99835.09;6156840;28;96493;-72
2022/10/06 12:23:13;;;;;;;;;9.00;8.00;;;;;35.53;22.50;99835.94;6159480;28;97496;-72
2022/10/06 12:26:27;;;;;;;;;8.00;7.00;;;;;34.63;23.59;99828.44;6161540;28;96607;-73
2022/10/06 12:29:46;;;;;;;;;6.80;6.20;;;;;34.40;24.38;99840.59;6161287;28;96226;-73
2022/10/06 12:32:53;;;;;;;;;7.00;7.00;;;;;33.83;24.55;99836.91;6161208;28;96680;-73
2022/10/06 12:36:02;;;;;;;;;6.60;6.60;;;;;33.21;25.84;99836.50;6162426;28;96454;-72
2022/10/06 12:39:22;;;;;;;;;8.00;7.25;;;;;32.54;26.87;99840.53;6122721;28;96741;-72
2022/10/06 12:42:30;;;;;;;;;7.00;7.00;;;;;31.59;27.86;99840.50;6142628;28;98946;-73
2022/10/06 12:45:34;;;;;;;;;6.80;6.80;;;;;30.98;29.13;99843.53;6144144;28;96529;-73
2022/10/06 12:48:42;;;;;;;;;10.00;9.00;;;;;30.27;30.16;99836.81;6159811;28;96605;-74
2022/10/06 12:51:47;;;;;;;;;8.00;8.00;;;;;29.75;31.03;99844.34;6145077;28;98521;-74
2022/10/06 12:55:13;;;;;;;;;8.00;8.00;;;;;29.24;31.57;99833.88;6127000;28;98622;-73
2022/10/06 12:58:18;;;;;;;;;10.00;9.00;;;;;28.79;32.24;99838.78;6160381;28;96618;-74
2022/10/06 13:01:22;;;;;;;;;8.40;7.60;;;;;28.53;33.69;99843.34;6160690;28;96190;-72
2022/10/06 13:04:50;;;;;;;;;8.20;8.00;;;;;28.51;33.92;99835.31;6124466;28;98929;-70
2022/10/06 13:07:58;;;;;;;;;9.00;8.00;;;;;28.35;34.50;99825.75;6138494;28;98507;-73
2022/10/06 13:11:20;;;;;;;;;7.80;7.40;;;;;28.43;34.53;99828.59;6161656;28;98220;-73
2022/10/06 13:14:23;;;;;;;;;8.00;8.00;;;;;28.56;34.29;99820.50;6158647;28;96468;-72
2022/10/06 13:17:26;;;;;;;;;8.40;7.40;;;;;28.69;34.24;99827.91;6159300;28;98336;-71
2022/10/06 13:20:37;;;;;;;;;7.00;6.00;;;;;29.01;33.29;99830.38;6160754;28;98058;-73
2022/10/06 13:23:40;;;;;;;;;7.60;7.00;;;;;29.20;33.32;99832.91;6159421;28;96278;-73
2022/10/06 13:26:46;;;;;;;;;7.00;7.00;;;;;29.31;33.02;99833.47;6162143;28;96445;-73
2022/10/06 13:29:49;;;;;;;;;6.00;6.00;;;;;29.32;33.25;99832.31;6159229;28;96500;-71
2022/10/06 13:32:55;;;;;;;;;8.20;7.20;;;;;29.18;32.49;99835.16;6124987;28;97392;-69
2022/10/06 13:35:59;;;;;;;;;8.25;8.00;;;;;29.15;33.22;99827.50;6169168;28;97012;-71
2022/10/06 13:39:04;;;;;;;;;7.00;7.00;;;;;29.21;32.94;99840.94;6164203;28;96839;-70
2022/10/06 13:42:16;;;;;;;;;8.00;7.60;;;;;29.08;33.40;99841.84;6161610;28;96562;-71
2022/10/06 13:45:21;;;;;;;;;7.00;7.00;;;;;28.95;32.89;99847.50;6160320;28;96516;-72
2022/10/06 13:48:27;;;;;;;;;9.00;7.50;;;;;28.93;32.84;99842.25;6161173;28;97908;-71
2022/10/06 13:51:32;;;;;;;;;9.00;8.00;;;;;28.93;33.51;99838.69;6161769;28;97843;-71
2022/10/06 13:54:41;;;;;;;;;8.00;7.60;;;;;28.98;33.80;99847.66;6160453;28;96563;-70
2022/10/06 13:57:47;;;;;;;;;8.00;7.00;;;;;28.92;33.96;99840.66;6160153;28;96393;-71
2022/10/06 14:00:55;;;;;;;;;8.00;8.00;;;;;29.04;33.08;99843.63;6142486;28;96699;-71
2022/10/06 14:04:17;;;;;;;;;8.00;8.00;;;;;29.07;33.80;99856.06;6160617;28;98439;-74
2022/10/06 14:07:20;;;;;;;;;8.00;7.00;;;;;28.98;33.37;99849.66;6158232;28;96296;-71
2022/10/06 14:10:29;;;;;;;;;8.40;8.00;;;;;28.91;33.70;99866.75;6160653;28;96920;-70
2022/10/06 14:13:45;;;;;;;;;7.00;6.00;;;;;28.65;34.22;99861.03;6126061;28;97145;-70
2022/10/06 14:16:51;;;;;;;;;8.00;7.60;;;;;28.56;33.76;99867.66;6160814;28;96379;-74
2022/10/06 14:19:54;;;;;;;;;6.60;6.00;;;;;28.22;35.11;99862.69;6162197;28;96829;-74
2022/10/06 14:22:58;;;;;;;;;9.00;7.40;;;;;27.93;35.34;99871.41;6143768;28;96528;-72
2022/10/06 14:26:02;;;;;;;;;9.00;8.00;;;;;27.73;36.11;99866.31;6162121;28;96256;-72
2022/10/06 14:29:06;;;;;;;;;9.00;8.00;;;;;27.52;36.57;99875.06;6162065;28;96288;-73
2022/10/06 14:32:14;;;;;;;;;8.00;8.00;;;;;27.41;37.06;99876.41;6143861;28;96751;-76
2022/10/06 14:35:17;;;;;;;;;10.60;10.60;;;;;27.43;37.14;99873.31;6161518;28;96479;-69
2022/10/06 14:38:21;;;;;;;;;8.00;7.00;;;;;27.48;37.03;99878.72;6166771;28;96215;-71
2022/10/06 14:41:27;;;;;;;;;10.40;8.00;;;;;27.35;36.99;99868.50;6127496;28;98390;-72
2022/10/06 14:44:33;;;;;;;;;7.00;7.00;;;;;27.24;37.53;99886.44;6154381;28;96541;-65
2022/10/06 14:47:36;;;;;;;;;7.60;7.60;;;;;27.09;38.30;99880.06;6164591;28;96773;-65